Time,TemperatureF,DewpointF,PressureIn,WindDirection,WindDirectionDegrees,WindSpeedMPH,WindSpeedGustMPH,Humidity,HourlyPrecipIn,Conditions,Clouds,dailyrainin,SoftwareType,DateUTC
2013-05-26 00:01:00,57.6,51.9,29.63,East,90,0.4,1.1,81,0.00,,,0.00,WUHU216HW,2013-05-26 07:01:00,
2013-05-26 00:06:00,57.2,51.1,29.63,ENE,68,0.7,1.3,80,0.00,,,0.00,WUHU216HW,2013-05-26 07:06:00,
2013-05-26 00:11:00,57.1,51.3,29.63,ENE,68,1.1,1.3,81,0.00,,,0.00,WUHU216HW,2013-05-26 07:11:00,
2013-05-26 00:16:00,56.9,51.1,29.63,NE,45,0.4,1.8,81,0.00,,,0.00,WUHU216HW,2013-05-26 07:16:00,
2013-05-26 00:21:00,56.9,51.1,29.63,ENE,68,0.7,1.8,81,0.00,,,0.00,WUHU216HW,2013-05-26 07:21:00,
2013-05-26 00:26:00,56.7,51.0,29.63,ENE,68,0.7,1.6,81,0.00,,,0.00,WUHU216HW,2013-05-26 07:26:00,
2013-05-26 00:31:00,56.7,51.0,29.63,ENE,68,0.9,1.1,81,0.00,,,0.00,WUHU216HW,2013-05-26 07:31:00,
2013-05-26 00:36:00,56.5,50.8,29.63,ENE,68,0.7,1.3,81,0.00,,,0.00,WUHU216HW,2013-05-26 07:36:00,
2013-05-26 00:41:00,56.5,50.8,29.63,ENE,68,1.1,1.6,81,0.00,,,0.00,WUHU216HW,2013-05-26 07:41:00,
2013-05-26 00:46:00,56.5,50.8,29.62,ENE,68,0.7,1.6,81,0.00,,,0.00,WUHU216HW,2013-05-26 07:46:00,
2013-05-26 00:51:00,56.3,50.6,29.63,NE,45,0.9,1.3,81,0.00,,,0.00,WUHU216HW,2013-05-26 07:51:00,
2013-05-26 00:56:00,56.2,50.4,29.63,East,90,0.2,1.1,81,0.00,,,0.00,WUHU216HW,2013-05-26 07:56:00,
2013-05-26 01:01:00,56.2,50.4,29.63,NNE,23,0.7,1.1,81,0.00,,,0.00,WUHU216HW,2013-05-26 08:01:00,
2013-05-26 01:06:00,56.3,50.6,29.63,NE,45,0.0,0.7,81,0.00,,,0.00,WUHU216HW,2013-05-26 08:06:00,
2013-05-26 01:11:00,56.3,50.6,29.63,NE,45,0.0,0.7,81,0.00,,,0.00,WUHU216HW,2013-05-26 08:11:00,
2013-05-26 01:16:00,56.5,50.8,29.62,ENE,68,0.4,0.7,81,0.00,,,0.00,WUHU216HW,2013-05-26 08:16:00,
2013-05-26 01:21:00,56.3,50.6,29.62,ENE,68,0.9,1.3,81,0.00,,,0.00,WUHU216HW,2013-05-26 08:21:00,
2013-05-26 01:26:00,56.2,50.4,29.63,ENE,68,0.4,1.3,81,0.00,,,0.00,WUHU216HW,2013-05-26 08:26:00,
2013-05-26 01:31:00,56.0,50.2,29.63,East,90,1.1,1.1,81,0.00,,,0.00,WUHU216HW,2013-05-26 08:31:00,
2013-05-26 01:36:00,55.8,50.1,29.62,ENE,68,0.7,1.3,81,0.00,,,0.00,WUHU216HW,2013-05-26 08:36:00,
2013-05-26 01:41:00,55.8,50.1,29.62,ENE,68,1.1,1.3,81,0.00,,,0.00,WUHU216HW,2013-05-26 08:41:00,
2013-05-26 01:46:00,55.6,49.9,29.62,ENE,68,0.7,1.1,81,0.00,,,0.00,WUHU216HW,2013-05-26 08:46:00,
2013-05-26 01:51:00,55.4,49.7,29.62,NE,45,1.1,1.1,81,0.00,,,0.00,WUHU216HW,2013-05-26 08:51:00,
2013-05-26 01:56:00,55.4,49.7,29.62,NE,45,1.1,1.3,81,0.00,,,0.00,WUHU216HW,2013-05-26 08:56:00,
2013-05-26 02:01:00,55.3,49.5,29.62,ENE,68,0.9,1.3,81,0.00,,,0.00,WUHU216HW,2013-05-26 09:01:00,
2013-05-26 02:06:00,55.1,49.3,29.62,ENE,68,0.7,1.1,81,0.00,,,0.00,WUHU216HW,2013-05-26 09:06:00,
2013-05-26 02:11:00,55.1,49.7,29.62,ENE,68,0.9,1.8,82,0.00,,,0.00,WUHU216HW,2013-05-26 09:11:00,
2013-05-26 02:16:00,55.1,49.7,29.62,ESE,113,1.8,1.8,82,0.00,,,0.00,WUHU216HW,2013-05-26 09:16:00,
2013-05-26 02:22:00,55.1,49.7,29.62,East,90,0.4,1.8,82,0.00,,,0.00,WUHU216HW,2013-05-26 09:22:00,
2013-05-26 02:27:00,55.1,49.7,29.61,East,90,0.9,1.8,82,0.00,,,0.00,WUHU216HW,2013-05-26 09:27:00,
2013-05-26 02:31:00,55.1,49.7,29.62,East,90,0.2,1.3,82,0.00,,,0.00,WUHU216HW,2013-05-26 09:31:00,
2013-05-26 02:36:00,55.1,49.7,29.62,ENE,68,1.1,1.3,82,0.00,,,0.00,WUHU216HW,2013-05-26 09:36:00,
2013-05-26 02:42:00,54.9,49.5,29.62,ENE,68,0.4,1.1,82,0.00,,,0.00,WUHU216HW,2013-05-26 09:42:00,
2013-05-26 02:47:00,54.7,49.3,29.62,ENE,68,1.1,1.3,82,0.00,,,0.00,WUHU216HW,2013-05-26 09:47:00,
2013-05-26 02:52:00,54.7,49.3,29.62,ENE,68,0.7,1.3,82,0.00,,,0.00,WUHU216HW,2013-05-26 09:52:00,
2013-05-26 02:57:00,54.7,49.3,29.62,ENE,68,0.9,1.1,82,0.00,,,0.00,WUHU216HW,2013-05-26 09:57:00,
2013-05-26 03:02:00,54.5,49.1,29.62,ENE,68,1.1,1.3,82,0.00,,,0.00,WUHU216HW,2013-05-26 10:02:00,
2013-05-26 03:07:00,54.4,49.0,29.62,ENE,68,0.9,1.3,82,0.00,,,0.00,WUHU216HW,2013-05-26 10:07:00,
2013-05-26 03:12:00,54.4,49.0,29.62,East,90,1.1,1.3,82,0.00,,,0.00,WUHU216HW,2013-05-26 10:12:00,
2013-05-26 03:17:00,54.2,48.8,29.62,East,90,1.1,1.6,82,0.00,,,0.00,WUHU216HW,2013-05-26 10:17:00,
2013-05-26 03:22:00,54.2,49.2,29.62,East,90,1.1,1.6,83,0.00,,,0.00,WUHU216HW,2013-05-26 10:22:00,
2013-05-26 03:27:00,54.0,49.0,29.62,East,90,0.9,1.3,83,0.00,,,0.00,WUHU216HW,2013-05-26 10:27:00,
2013-05-26 03:32:00,54.0,49.0,29.62,East,90,0.4,1.3,83,0.00,,,0.00,WUHU216HW,2013-05-26 10:32:00,
2013-05-26 03:37:00,54.2,49.2,29.62,ESE,113,0.4,1.1,83,0.00,,,0.00,WUHU216HW,2013-05-26 10:37:00,
2013-05-26 03:42:00,54.2,49.2,29.62,ENE,68,0.4,0.4,83,0.00,,,0.00,WUHU216HW,2013-05-26 10:42:00,
2013-05-26 03:47:00,54.4,49.3,29.63,East,90,0.2,0.4,83,0.00,,,0.00,WUHU216HW,2013-05-26 10:47:00,
2013-05-26 03:52:00,54.2,49.2,29.62,ENE,68,1.1,1.6,83,0.00,,,0.00,WUHU216HW,2013-05-26 10:52:00,
2013-05-26 03:57:00,54.2,49.2,29.62,ENE,68,1.1,1.6,83,0.00,,,0.00,WUHU216HW,2013-05-26 10:57:00,
2013-05-26 04:02:00,53.8,48.8,29.62,ENE,68,0.7,1.3,83,0.00,,,0.00,WUHU216HW,2013-05-26 11:02:00,
2013-05-26 04:07:00,53.8,48.8,29.62,ESE,113,0.0,1.1,83,0.00,,,0.00,WUHU216HW,2013-05-26 11:07:00,
2013-05-26 04:12:00,53.6,48.6,29.63,East,90,0.0,0.9,83,0.00,,,0.00,WUHU216HW,2013-05-26 11:12:00,
2013-05-26 04:17:00,53.6,48.6,29.63,NNW,338,0.0,0.0,83,0.00,,,0.00,WUHU216HW,2013-05-26 11:17:00,
2013-05-26 04:22:00,53.6,48.6,29.62,NNW,338,0.0,0.0,83,0.00,,,0.00,WUHU216HW,2013-05-26 11:22:00,
2013-05-26 04:27:00,53.6,48.6,29.63,ENE,68,0.0,0.0,83,0.00,,,0.00,WUHU216HW,2013-05-26 11:27:00,
2013-05-26 04:32:00,53.5,48.4,29.62,ENE,68,0.9,1.3,83,0.00,,,0.00,WUHU216HW,2013-05-26 11:32:00,
2013-05-26 04:37:00,53.5,48.8,29.62,ENE,68,0.0,1.3,84,0.00,,,0.00,WUHU216HW,2013-05-26 11:37:00,
2013-05-26 04:42:00,53.3,48.6,29.62,ENE,68,0.0,0.9,84,0.00,,,0.00,WUHU216HW,2013-05-26 11:42:00,
2013-05-26 04:47:00,53.3,48.6,29.63,ENE,68,0.0,0.0,84,0.00,,,0.00,WUHU216HW,2013-05-26 11:47:00,
2013-05-26 04:52:00,53.3,48.6,29.62,ENE,68,0.0,0.0,84,0.00,,,0.00,WUHU216HW,2013-05-26 11:52:00,
2013-05-26 04:57:00,53.5,48.8,29.62,ENE,68,0.0,0.0,84,0.00,,,0.00,WUHU216HW,2013-05-26 11:57:00,
2013-05-26 05:02:00,53.3,48.6,29.62,ENE,68,0.0,0.0,84,0.00,,,0.00,WUHU216HW,2013-05-26 12:02:00,
2013-05-26 05:07:00,53.3,48.6,29.62,ENE,68,0.0,0.0,84,0.00,,,0.00,WUHU216HW,2013-05-26 12:07:00,
2013-05-26 05:12:00,53.1,48.1,29.62,ENE,68,0.0,0.0,83,0.00,,,0.00,WUHU216HW,2013-05-26 12:12:00,
2013-05-26 05:17:00,52.9,48.3,29.62,East,90,0.4,0.7,84,0.00,,,0.00,WUHU216HW,2013-05-26 12:17:00,
2013-05-26 05:22:00,52.9,48.3,29.62,East,90,0.0,0.7,84,0.00,,,0.00,WUHU216HW,2013-05-26 12:22:00,
2013-05-26 05:27:00,52.7,48.1,29.62,East,90,0.0,0.4,84,0.00,,,0.00,WUHU216HW,2013-05-26 12:27:00,
2013-05-26 05:32:00,52.7,48.1,29.62,East,90,0.0,0.0,84,0.00,,,0.00,WUHU216HW,2013-05-26 12:32:00,
2013-05-26 05:37:00,52.6,47.9,29.62,ENE,68,0.0,0.4,84,0.00,,,0.00,WUHU216HW,2013-05-26 12:37:00,
2013-05-26 05:42:00,52.6,47.9,29.62,North,0,0.0,0.9,84,0.00,,,0.00,WUHU216HW,2013-05-26 12:42:00,
2013-05-26 05:47:00,52.6,47.9,29.62,North,0,0.0,0.9,84,0.00,,,0.00,WUHU216HW,2013-05-26 12:47:00,
2013-05-26 05:52:00,52.6,48.2,29.62,North,0,0.0,0.0,85,0.00,,,0.00,WUHU216HW,2013-05-26 12:52:00,
2013-05-26 05:57:00,52.4,48.0,29.63,North,0,0.0,0.0,85,0.00,,,0.00,WUHU216HW,2013-05-26 12:57:00,
2013-05-26 06:02:00,52.4,48.0,29.63,North,0,0.0,0.0,85,0.00,,,0.00,WUHU216HW,2013-05-26 13:02:00,
2013-05-26 06:07:00,52.4,48.0,29.63,North,0,0.0,0.0,85,0.00,,,0.00,WUHU216HW,2013-05-26 13:07:00,
2013-05-26 06:12:00,52.6,48.2,29.63,North,0,0.0,0.0,85,0.00,,,0.00,WUHU216HW,2013-05-26 13:12:00,
2013-05-26 06:17:00,52.6,48.2,29.63,North,0,0.0,0.0,85,0.00,,,0.00,WUHU216HW,2013-05-26 13:17:00,
2013-05-26 06:22:00,52.9,48.5,29.63,North,0,0.0,0.0,85,0.00,,,0.00,WUHU216HW,2013-05-26 13:22:00,
2013-05-26 06:27:00,52.9,48.5,29.63,North,0,0.0,0.0,85,0.00,,,0.00,WUHU216HW,2013-05-26 13:27:00,
2013-05-26 06:32:00,53.1,48.7,29.63,North,0,0.0,0.0,85,0.00,,,0.00,WUHU216HW,2013-05-26 13:32:00,
2013-05-26 06:37:00,53.3,48.9,29.64,North,0,0.0,0.0,85,0.00,,,0.00,WUHU216HW,2013-05-26 13:37:00,
2013-05-26 06:42:00,53.6,49.2,29.64,North,0,0.0,0.0,85,0.00,,,0.00,WUHU216HW,2013-05-26 13:42:00,
2013-05-26 06:47:00,53.8,49.4,29.64,North,0,0.0,0.0,85,0.00,,,0.00,WUHU216HW,2013-05-26 13:47:00,
2013-05-26 06:52:00,54.0,49.6,29.65,North,0,0.0,0.0,85,0.00,,,0.00,WUHU216HW,2013-05-26 13:52:00,
2013-05-26 06:57:00,54.5,50.1,29.65,North,0,0.0,0.0,85,0.00,,,0.00,WUHU216HW,2013-05-26 13:57:00,
2013-05-26 07:02:00,54.9,50.4,29.65,NNE,23,0.0,0.0,85,0.00,,,0.00,WUHU216HW,2013-05-26 14:02:00,
2013-05-26 07:07:00,55.4,50.6,29.65,North,0,0.0,0.4,84,0.00,,,0.00,WUHU216HW,2013-05-26 14:07:00,
2013-05-26 07:12:00,55.6,50.8,29.65,North,0,0.4,0.4,84,0.00,,,0.00,WUHU216HW,2013-05-26 14:12:00,
2013-05-26 07:17:00,56.2,51.3,29.65,North,0,0.0,0.7,84,0.00,,,0.00,WUHU216HW,2013-05-26 14:17:00,
2013-05-26 07:22:00,56.7,52.2,29.65,NNW,338,0.0,0.7,85,0.00,,,0.00,WUHU216HW,2013-05-26 14:22:00,
2013-05-26 07:27:00,57.2,52.4,29.66,WSW,248,0.4,0.4,84,0.00,,,0.00,WUHU216HW,2013-05-26 14:27:00,
2013-05-26 07:32:00,57.6,52.5,29.66,NE,45,0.0,0.4,83,0.00,,,0.00,WUHU216HW,2013-05-26 14:32:00,
2013-05-26 07:37:00,58.1,53.0,29.66,ENE,68,0.0,0.4,83,0.00,,,0.00,WUHU216HW,2013-05-26 14:37:00,
2013-05-26 07:42:00,58.7,53.2,29.66,SE,135,0.7,0.7,82,0.00,,,0.00,WUHU216HW,2013-05-26 14:42:00,
2013-05-26 07:47:00,59.0,53.6,29.66,SE,135,0.0,0.7,82,0.00,,,0.00,WUHU216HW,2013-05-26 14:47:00,
2013-05-26 07:52:00,59.4,53.7,29.66,ENE,68,0.0,0.7,81,0.00,,,0.00,WUHU216HW,2013-05-26 14:52:00,
2013-05-26 07:57:00,60.1,54.0,29.66,SE,135,0.0,0.9,80,0.00,,,0.00,WUHU216HW,2013-05-26 14:57:00,
2013-05-26 08:02:00,60.7,54.2,29.66,NNE,23,0.4,0.9,79,0.00,,,0.00,WUHU216HW,2013-05-26 15:02:00,
2013-05-26 08:07:00,61.4,54.8,29.66,ESE,113,0.4,1.1,79,0.00,,,0.00,WUHU216HW,2013-05-26 15:07:00,
2013-05-26 08:12:00,61.6,53.9,29.66,SSW,203,0.9,1.1,76,0.00,,,0.00,WUHU216HW,2013-05-26 15:12:00,
2013-05-26 08:17:00,61.7,54.5,29.66,SW,225,1.3,1.3,77,0.00,,,0.00,WUHU216HW,2013-05-26 15:17:00,
2013-05-26 08:22:00,61.6,53.9,29.67,SW,225,1.6,2.5,76,0.00,,,0.00,WUHU216HW,2013-05-26 15:22:00,
2013-05-26 08:27:00,62.1,54.8,29.66,SW,225,1.1,2.5,77,0.00,,,0.00,WUHU216HW,2013-05-26 15:27:00,
2013-05-26 08:32:00,62.3,54.5,29.67,North,0,0.0,1.6,76,0.00,,,0.00,WUHU216HW,2013-05-26 15:32:00,
2013-05-26 08:37:00,62.5,54.7,29.67,WSW,248,1.1,1.1,76,0.00,,,0.00,WUHU216HW,2013-05-26 15:37:00,
2013-05-26 08:42:00,63.0,55.6,29.67,South,180,2.0,2.7,77,0.00,,,0.00,WUHU216HW,2013-05-26 15:42:00,
2013-05-26 08:47:00,63.4,54.9,29.67,West,270,0.9,3.4,74,0.00,,,0.00,WUHU216HW,2013-05-26 15:47:00,
2013-05-26 08:52:00,63.5,55.1,29.67,NW,315,1.3,3.4,74,0.00,,,0.00,WUHU216HW,2013-05-26 15:52:00,
2013-05-26 08:57:00,63.5,55.4,29.68,West,270,1.6,3.4,75,0.00,,,0.00,WUHU216HW,2013-05-26 15:57:00,
2013-05-26 09:02:00,63.7,55.3,29.68,WSW,248,5.1,5.1,74,0.00,,,0.00,WUHU216HW,2013-05-26 16:02:00,
2013-05-26 09:07:00,64.1,55.6,29.68,SW,225,3.4,5.1,74,0.00,,,0.00,WUHU216HW,2013-05-26 16:07:00,
2013-05-26 09:12:00,64.1,55.3,29.68,WSW,248,2.5,5.1,73,0.00,,,0.00,WUHU216HW,2013-05-26 16:12:00,
2013-05-26 09:17:00,63.7,55.3,29.68,SW,225,5.8,5.8,74,0.00,,,0.00,WUHU216HW,2013-05-26 16:17:00,
2013-05-26 09:22:00,63.7,55.3,29.67,WSW,248,1.3,5.8,74,0.00,,,0.00,WUHU216HW,2013-05-26 16:22:00,
2013-05-26 09:27:00,63.9,55.4,29.67,SW,225,4.7,5.8,74,0.00,,,0.00,WUHU216HW,2013-05-26 16:27:00,
2013-05-26 09:32:00,64.1,55.6,29.68,SW,225,3.8,4.7,74,0.00,,,0.00,WUHU216HW,2013-05-26 16:32:00,
2013-05-26 09:37:00,64.1,55.3,29.68,SW,225,2.7,4.7,73,0.00,,,0.00,WUHU216HW,2013-05-26 16:37:00,
2013-05-26 09:42:00,63.9,55.4,29.68,SW,225,2.2,3.8,74,0.00,,,0.00,WUHU216HW,2013-05-26 16:42:00,
2013-05-26 09:47:00,63.9,55.4,29.68,SW,225,2.2,2.7,74,0.00,,,0.00,WUHU216HW,2013-05-26 16:47:00,
2013-05-26 09:52:00,63.7,55.3,29.68,WSW,248,1.1,2.2,74,0.00,,,0.00,WUHU216HW,2013-05-26 16:52:00,
2013-05-26 09:57:00,63.7,55.3,29.67,West,270,1.1,2.2,74,0.00,,,0.00,WUHU216HW,2013-05-26 16:57:00,
2013-05-26 10:02:00,64.3,55.8,29.68,WNW,293,2.0,2.2,74,0.00,,,0.00,WUHU216HW,2013-05-26 17:02:00,
2013-05-26 10:07:00,64.4,55.6,29.68,NW,315,0.4,4.9,73,0.00,,,0.00,WUHU216HW,2013-05-26 17:07:00,
2013-05-26 10:12:00,64.4,55.6,29.68,North,0,1.8,4.9,73,0.00,,,0.00,WUHU216HW,2013-05-26 17:12:00,
2013-05-26 10:17:00,64.8,56.0,29.68,SW,225,4.0,4.9,73,0.00,,,0.00,WUHU216HW,2013-05-26 17:17:00,
2013-05-26 10:22:00,65.0,55.8,29.68,SW,225,1.8,4.9,72,0.00,,,0.00,WUHU216HW,2013-05-26 17:22:00,
2013-05-26 10:27:00,64.6,55.8,29.68,SW,225,4.5,4.5,73,0.00,,,0.00,WUHU216HW,2013-05-26 17:27:00,
2013-05-26 10:32:00,64.8,55.6,29.68,SW,225,2.5,4.5,72,0.00,,,0.00,WUHU216HW,2013-05-26 17:32:00,
2013-05-26 10:37:00,64.6,55.5,29.68,WSW,248,1.1,4.5,72,0.00,,,0.00,WUHU216HW,2013-05-26 17:37:00,
2013-05-26 10:42:00,64.6,55.8,29.68,WSW,248,1.8,2.5,73,0.00,,,0.00,WUHU216HW,2013-05-26 17:42:00,
2013-05-26 10:47:00,64.8,55.6,29.68,North,0,1.1,1.8,72,0.00,,,0.00,WUHU216HW,2013-05-26 17:47:00,
2013-05-26 10:52:00,65.0,55.8,29.68,WSW,248,1.8,1.8,72,0.00,,,0.00,WUHU216HW,2013-05-26 17:52:00,
2013-05-26 10:57:00,65.0,55.8,29.68,NW,315,1.1,2.9,72,0.00,,,0.00,WUHU216HW,2013-05-26 17:57:00,
2013-05-26 11:02:00,64.8,55.6,29.68,WSW,248,1.3,2.9,72,0.00,,,0.00,WUHU216HW,2013-05-26 18:02:00,
2013-05-26 11:07:00,64.8,55.6,29.68,West,270,2.2,4.7,72,0.00,,,0.00,WUHU216HW,2013-05-26 18:07:00,
2013-05-26 11:12:00,64.8,55.6,29.68,West,270,2.5,4.7,72,0.00,,,0.00,WUHU216HW,2013-05-26 18:12:00,
2013-05-26 11:17:00,65.2,55.5,29.69,WSW,248,5.8,5.8,71,0.00,,,0.00,WUHU216HW,2013-05-26 18:17:00,
2013-05-26 11:22:00,65.3,55.4,29.69,SSW,203,1.6,5.8,70,0.00,,,0.00,WUHU216HW,2013-05-26 18:22:00,
2013-05-26 11:27:00,65.2,55.2,29.69,NW,315,1.8,5.8,70,0.00,,,0.00,WUHU216HW,2013-05-26 18:27:00,
2013-05-26 11:32:00,65.2,55.2,29.69,WSW,248,1.3,4.7,70,0.00,,,0.00,WUHU216HW,2013-05-26 18:32:00,
2013-05-26 11:37:00,65.3,55.4,29.69,SW,225,5.4,5.4,70,0.00,,,0.00,WUHU216HW,2013-05-26 18:37:00,
2013-05-26 11:42:00,65.5,55.5,29.69,WSW,248,3.1,5.4,70,0.00,,,0.00,WUHU216HW,2013-05-26 18:42:00,
2013-05-26 11:47:00,65.7,55.7,29.69,WSW,248,2.5,5.4,70,0.00,,,0.00,WUHU216HW,2013-05-26 18:47:00,
2013-05-26 11:52:00,65.7,55.7,29.68,West,270,2.5,3.8,70,0.00,,,0.00,WUHU216HW,2013-05-26 18:52:00,
2013-05-26 11:57:00,65.7,55.7,29.68,SSW,203,1.6,3.6,70,0.00,,,0.00,WUHU216HW,2013-05-26 18:57:00,
2013-05-26 12:02:00,65.7,55.7,29.68,WSW,248,3.4,5.4,70,0.00,,,0.00,WUHU216HW,2013-05-26 19:02:00,
2013-05-26 12:07:00,65.7,55.7,29.69,NW,315,1.8,5.4,70,0.00,,,0.00,WUHU216HW,2013-05-26 19:07:00,
2013-05-26 12:12:00,65.7,55.7,29.69,SE,135,6.9,6.9,70,0.00,,,0.00,WUHU216HW,2013-05-26 19:12:00,
2013-05-26 12:17:00,65.9,55.8,29.69,SSW,203,2.2,6.9,70,0.00,,,0.00,WUHU216HW,2013-05-26 19:17:00,
2013-05-26 12:22:00,66.1,56.0,29.69,West,270,3.4,6.9,70,0.00,,,0.00,WUHU216HW,2013-05-26 19:22:00,
2013-05-26 12:27:00,66.1,56.0,29.69,SW,225,2.0,4.0,70,0.00,,,0.00,WUHU216HW,2013-05-26 19:27:00,
2013-05-26 12:32:00,66.1,55.6,29.69,WSW,248,3.8,4.0,69,0.00,,,0.00,WUHU216HW,2013-05-26 19:32:00,
2013-05-26 12:37:00,66.2,55.7,29.69,WSW,248,3.8,3.8,69,0.00,,,0.00,WUHU216HW,2013-05-26 19:37:00,
2013-05-26 12:42:00,65.9,55.5,29.69,SW,225,2.5,3.8,69,0.00,,,0.00,WUHU216HW,2013-05-26 19:42:00,
2013-05-26 12:47:00,66.1,55.6,29.69,SW,225,4.9,6.3,69,0.00,,,0.00,WUHU216HW,2013-05-26 19:47:00,
2013-05-26 12:52:00,65.9,55.8,29.69,SW,225,4.3,6.3,70,0.00,,,0.00,WUHU216HW,2013-05-26 19:52:00,
2013-05-26 12:57:00,66.1,55.6,29.69,West,270,0.4,5.6,69,0.00,,,0.00,WUHU216HW,2013-05-26 19:57:00,
2013-05-26 13:02:00,66.4,55.9,29.69,West,270,2.0,4.3,69,0.00,,,0.00,WUHU216HW,2013-05-26 20:02:00,
2013-05-26 13:07:00,66.6,56.5,29.69,SW,225,2.0,3.1,70,0.00,,,0.00,WUHU216HW,2013-05-26 20:07:00,
2013-05-26 13:12:00,66.8,56.3,29.69,WSW,248,3.6,6.3,69,0.00,,,0.00,WUHU216HW,2013-05-26 20:12:00,
2013-05-26 13:17:00,66.4,55.9,29.68,NW,315,1.1,6.3,69,0.00,,,0.00,WUHU216HW,2013-05-26 20:17:00,
2013-05-26 13:22:00,66.1,56.0,29.69,WSW,248,3.8,5.6,70,0.00,,,0.00,WUHU216HW,2013-05-26 20:22:00,
2013-05-26 13:27:00,66.6,55.7,29.69,West,270,2.2,3.8,68,0.00,,,0.00,WUHU216HW,2013-05-26 20:27:00,
2013-05-26 13:32:00,66.8,55.9,29.69,West,270,2.5,4.0,68,0.00,,,0.00,WUHU216HW,2013-05-26 20:32:00,
2013-05-26 13:37:00,66.6,56.1,29.68,South,180,2.0,4.0,69,0.00,,,0.00,WUHU216HW,2013-05-26 20:37:00,
2013-05-26 13:42:00,66.8,56.3,29.69,West,270,1.8,3.4,69,0.00,,,0.00,WUHU216HW,2013-05-26 20:42:00,
2013-05-26 13:47:00,67.0,56.4,29.68,SW,225,6.7,6.7,69,0.00,,,0.00,WUHU216HW,2013-05-26 20:47:00,
2013-05-26 13:52:00,67.1,55.8,29.68,WSW,248,1.8,6.7,67,0.00,,,0.00,WUHU216HW,2013-05-26 20:52:00,
2013-05-26 13:57:00,67.1,55.8,29.68,SW,225,4.9,6.7,67,0.00,,,0.00,WUHU216HW,2013-05-26 20:57:00,
2013-05-26 14:02:00,67.0,56.1,29.68,SW,225,2.0,5.6,68,0.00,,,0.00,WUHU216HW,2013-05-26 21:02:00,
2013-05-26 14:07:00,66.6,56.1,29.68,SW,225,4.0,4.9,69,0.00,,,0.00,WUHU216HW,2013-05-26 21:07:00,
2013-05-26 14:12:00,66.6,56.1,29.68,West,270,1.8,5.4,69,0.00,,,0.00,WUHU216HW,2013-05-26 21:12:00,
2013-05-26 14:17:00,66.6,56.1,29.68,West,270,1.6,5.4,69,0.00,,,0.00,WUHU216HW,2013-05-26 21:17:00,
2013-05-26 14:22:00,66.6,56.5,29.69,WSW,248,5.4,5.4,70,0.00,,,0.00,WUHU216HW,2013-05-26 21:22:00,
2013-05-26 14:27:00,66.6,56.1,29.69,WSW,248,3.4,5.4,69,0.00,,,0.00,WUHU216HW,2013-05-26 21:27:00,
2013-05-26 14:32:00,66.4,56.3,29.68,SW,225,3.4,5.4,70,0.00,,,0.00,WUHU216HW,2013-05-26 21:32:00,
2013-05-26 14:37:00,66.4,56.3,29.68,SW,225,5.6,5.6,70,0.00,,,0.00,WUHU216HW,2013-05-26 21:37:00,
2013-05-26 14:42:00,66.6,56.5,29.68,West,270,2.5,5.6,70,0.00,,,0.00,WUHU216HW,2013-05-26 21:42:00,
2013-05-26 14:47:00,66.2,56.2,29.68,West,270,2.5,5.6,70,0.00,,,0.00,WUHU216HW,2013-05-26 21:47:00,
2013-05-26 14:52:00,65.9,56.3,29.68,SW,225,3.4,4.5,71,0.00,,,0.00,WUHU216HW,2013-05-26 21:52:00,
2013-05-26 14:57:00,66.2,56.2,29.68,WSW,248,5.8,5.8,70,0.00,,,0.00,WUHU216HW,2013-05-26 21:57:00,
2013-05-26 15:02:00,66.2,56.2,29.68,WNW,293,1.8,5.8,70,0.00,,,0.00,WUHU216HW,2013-05-26 22:02:00,
2013-05-26 15:07:00,66.2,56.2,29.68,WSW,248,2.7,5.8,70,0.00,,,0.00,WUHU216HW,2013-05-26 22:07:00,
2013-05-26 15:12:00,66.6,56.5,29.68,South,180,1.3,4.9,70,0.00,,,0.00,WUHU216HW,2013-05-26 22:12:00,
2013-05-26 15:17:00,66.6,56.5,29.68,WSW,248,2.7,4.9,70,0.00,,,0.00,WUHU216HW,2013-05-26 22:17:00,
2013-05-26 15:22:00,66.4,56.3,29.68,West,270,2.2,2.7,70,0.00,,,0.00,WUHU216HW,2013-05-26 22:22:00,
2013-05-26 15:27:00,66.2,56.2,29.68,SW,225,2.5,2.7,70,0.00,,,0.00,WUHU216HW,2013-05-26 22:27:00,
2013-05-26 15:32:00,66.2,56.5,29.68,SW,225,3.8,3.8,71,0.00,,,0.00,WUHU216HW,2013-05-26 22:32:00,
2013-05-26 15:37:00,66.4,55.9,29.68,WNW,293,2.7,3.8,69,0.00,,,0.00,WUHU216HW,2013-05-26 22:37:00,
2013-05-26 15:42:00,66.2,56.2,29.67,West,270,5.4,5.4,70,0.00,,,0.00,WUHU216HW,2013-05-26 22:42:00,
2013-05-26 15:47:00,66.4,56.3,29.68,WSW,248,6.7,6.7,70,0.00,,,0.00,WUHU216HW,2013-05-26 22:47:00,
2013-05-26 15:52:00,66.6,56.1,29.67,SW,225,3.1,6.7,69,0.00,,,0.00,WUHU216HW,2013-05-26 22:52:00,
2013-05-26 15:57:00,66.2,55.4,29.67,SW,225,5.1,6.7,68,0.00,,,0.00,WUHU216HW,2013-05-26 22:57:00,
2013-05-26 16:02:00,66.4,55.9,29.67,West,270,1.3,5.1,69,0.00,,,0.00,WUHU216HW,2013-05-26 23:02:00,
2013-05-26 16:07:00,66.6,55.3,29.66,SW,225,2.9,5.1,67,0.00,,,0.00,WUHU216HW,2013-05-26 23:07:00,
2013-05-26 16:12:00,66.8,54.6,29.66,West,270,2.9,2.9,65,0.00,,,0.00,WUHU216HW,2013-05-26 23:12:00,
2013-05-26 16:17:00,66.8,54.2,29.66,WSW,248,2.9,3.6,64,0.00,,,0.00,WUHU216HW,2013-05-26 23:17:00,
2013-05-26 16:22:00,66.8,53.7,29.66,SSW,203,3.1,3.6,63,0.00,,,0.00,WUHU216HW,2013-05-26 23:22:00,
2013-05-26 16:27:00,66.6,53.2,29.66,WSW,248,4.3,4.3,62,0.00,,,0.00,WUHU216HW,2013-05-26 23:27:00,
2013-05-26 16:32:00,66.6,53.2,29.65,West,270,1.8,4.3,62,0.00,,,0.00,WUHU216HW,2013-05-26 23:32:00,
2013-05-26 16:37:00,66.8,53.4,29.65,WSW,248,1.1,4.3,62,0.00,,,0.00,WUHU216HW,2013-05-26 23:37:00,
2013-05-26 16:42:00,67.0,53.6,29.65,SW,225,6.3,6.3,62,0.00,,,0.00,WUHU216HW,2013-05-26 23:42:00,
2013-05-26 16:47:00,67.3,53.8,29.65,NW,315,2.2,6.3,62,0.00,,,0.00,WUHU216HW,2013-05-26 23:47:00,
2013-05-26 16:52:00,67.3,53.0,29.65,WSW,248,2.9,6.3,60,0.00,,,0.00,WUHU216HW,2013-05-26 23:52:00,
2013-05-26 16:57:00,66.8,52.9,29.65,WSW,248,1.3,3.4,61,0.00,,,0.00,WUHU216HW,2013-05-26 23:57:00,
2013-05-26 17:02:00,67.0,53.6,29.65,WSW,248,4.0,4.0,62,0.00,,,0.00,WUHU216HW,2013-05-27 00:02:00,
2013-05-26 17:07:00,67.0,53.6,29.65,West,270,2.7,4.0,62,0.00,,,0.00,WUHU216HW,2013-05-27 00:07:00,
2013-05-26 17:12:00,66.8,53.4,29.65,NNW,338,1.6,4.0,62,0.00,,,0.00,WUHU216HW,2013-05-27 00:12:00,
2013-05-26 17:17:00,67.0,53.6,29.64,WSW,248,4.0,5.4,62,0.00,,,0.00,WUHU216HW,2013-05-27 00:17:00,
2013-05-26 17:22:00,67.1,53.3,29.64,South,180,4.5,5.4,61,0.00,,,0.00,WUHU216HW,2013-05-27 00:22:00,
2013-05-26 17:27:00,67.5,53.6,29.64,SW,225,1.8,4.5,61,0.00,,,0.00,WUHU216HW,2013-05-27 00:27:00,
2013-05-26 17:32:00,67.7,53.7,29.64,SW,225,3.4,4.5,61,0.00,,,0.00,WUHU216HW,2013-05-27 00:32:00,
2013-05-26 17:37:00,67.3,54.3,29.64,West,270,1.6,4.0,63,0.00,,,0.00,WUHU216HW,2013-05-27 00:37:00,
2013-05-26 17:42:00,67.1,54.6,29.64,SSW,203,2.9,3.4,64,0.00,,,0.00,WUHU216HW,2013-05-27 00:42:00,
2013-05-26 17:47:00,66.6,54.8,29.64,West,270,0.4,2.9,66,0.00,,,0.00,WUHU216HW,2013-05-27 00:47:00,
2013-05-26 17:52:00,66.4,55.5,29.64,SE,135,1.1,2.9,68,0.00,,,0.00,WUHU216HW,2013-05-27 00:52:00,
2013-05-26 17:57:00,66.2,55.7,29.64,WSW,248,1.3,1.8,69,0.00,,,0.00,WUHU216HW,2013-05-27 00:57:00,
2013-05-26 18:02:00,65.7,55.7,29.64,SW,225,2.2,2.2,70,0.00,,,0.00,WUHU216HW,2013-05-27 01:02:00,
2013-05-26 18:07:00,65.3,55.7,29.63,WNW,293,1.1,2.2,71,0.00,,,0.00,WUHU216HW,2013-05-27 01:07:00,
2013-05-26 18:12:00,65.0,55.8,29.64,West,270,1.6,2.5,72,0.00,,,0.00,WUHU216HW,2013-05-27 01:12:00,
2013-05-26 18:17:00,64.8,56.0,29.63,WSW,248,1.8,2.5,73,0.00,,,0.00,WUHU216HW,2013-05-27 01:17:00,
2013-05-26 18:22:00,64.4,56.0,29.63,NW,315,1.6,1.8,74,0.00,,,0.00,WUHU216HW,2013-05-27 01:22:00,
2013-05-26 18:27:00,64.4,56.0,29.63,SW,225,2.5,2.5,74,0.00,,,0.00,WUHU216HW,2013-05-27 01:27:00,
2013-05-26 18:32:00,64.4,56.0,29.63,West,270,1.3,2.5,74,0.00,,,0.00,WUHU216HW,2013-05-27 01:32:00,
2013-05-26 18:37:00,64.1,55.6,29.63,WNW,293,0.4,2.5,74,0.00,,,0.00,WUHU216HW,2013-05-27 01:37:00,
2013-05-26 18:42:00,64.1,55.6,29.63,West,270,1.6,1.6,74,0.00,,,0.00,WUHU216HW,2013-05-27 01:42:00,
2013-05-26 18:47:00,64.4,56.0,29.63,SW,225,1.1,1.6,74,0.00,,,0.00,WUHU216HW,2013-05-27 01:47:00,
2013-05-26 18:52:00,64.3,55.4,29.63,WSW,248,0.9,2.9,73,0.00,,,0.00,WUHU216HW,2013-05-27 01:52:00,
2013-05-26 18:57:00,64.1,55.3,29.63,West,270,0.4,2.9,73,0.00,,,0.00,WUHU216HW,2013-05-27 01:57:00,
2013-05-26 19:03:00,64.1,55.3,29.63,NNW,338,0.4,0.9,73,0.00,,,0.00,WUHU216HW,2013-05-27 02:03:00,
2013-05-26 19:08:00,63.9,55.1,29.63,West,270,0.2,0.7,73,0.00,,,0.00,WUHU216HW,2013-05-27 02:08:00,
2013-05-26 19:13:00,63.7,54.9,29.63,West,270,0.0,0.7,73,0.00,,,0.00,WUHU216HW,2013-05-27 02:13:00,
2013-05-26 19:18:00,63.7,54.9,29.63,SW,225,1.1,1.1,73,0.00,,,0.00,WUHU216HW,2013-05-27 02:18:00,
2013-05-26 19:23:00,63.7,54.9,29.63,NNW,338,0.0,1.1,73,0.00,,,0.00,WUHU216HW,2013-05-27 02:23:00,
2013-05-26 19:28:00,63.7,54.5,29.63,SW,225,0.7,1.1,72,0.00,,,0.00,WUHU216HW,2013-05-27 02:28:00,
2013-05-26 19:33:00,63.7,54.9,29.63,SW,225,1.1,1.1,73,0.00,,,0.00,WUHU216HW,2013-05-27 02:33:00,
2013-05-26 19:38:00,63.5,54.7,29.63,WSW,248,2.0,2.7,73,0.00,,,0.00,WUHU216HW,2013-05-27 02:38:00,
2013-05-26 19:43:00,63.5,54.7,29.63,WSW,248,1.1,2.7,73,0.00,,,0.00,WUHU216HW,2013-05-27 02:43:00,
2013-05-26 19:48:00,63.4,54.9,29.63,WSW,248,0.0,2.0,74,0.00,,,0.00,WUHU216HW,2013-05-27 02:48:00,
2013-05-26 19:53:00,63.2,54.7,29.63,SSE,158,0.4,1.1,74,0.00,,,0.00,WUHU216HW,2013-05-27 02:53:00,
2013-05-26 19:58:00,63.0,54.5,29.63,SE,135,0.9,1.1,74,0.00,,,0.00,WUHU216HW,2013-05-27 02:58:00,
2013-05-26 20:03:00,63.0,54.5,29.63,SSW,203,0.7,1.1,74,0.00,,,0.00,WUHU216HW,2013-05-27 03:03:00,
2013-05-26 20:08:00,63.0,54.5,29.63,SSW,203,1.1,1.1,74,0.00,,,0.00,WUHU216HW,2013-05-27 03:08:00,
2013-05-26 20:13:00,63.0,54.9,29.64,SSE,158,1.1,1.1,75,0.00,,,0.00,WUHU216HW,2013-05-27 03:13:00,
2013-05-26 20:18:00,62.6,53.8,29.64,SE,135,0.4,1.8,73,0.00,,,0.00,WUHU216HW,2013-05-27 03:18:00,
2013-05-26 20:23:00,62.5,54.0,29.64,SW,225,0.2,1.8,74,0.00,,,0.00,WUHU216HW,2013-05-27 03:23:00,
2013-05-26 20:28:00,62.3,53.8,29.64,SE,135,0.7,0.9,74,0.00,,,0.00,WUHU216HW,2013-05-27 03:28:00,
2013-05-26 20:33:00,62.1,53.4,29.64,SE,135,0.0,0.7,73,0.00,,,0.00,WUHU216HW,2013-05-27 03:33:00,
2013-05-26 20:38:00,62.1,53.4,29.64,SE,135,1.3,1.3,73,0.00,,,0.00,WUHU216HW,2013-05-27 03:38:00,
2013-05-26 20:43:00,61.9,53.2,29.64,ESE,113,1.1,1.3,73,0.00,,,0.00,WUHU216HW,2013-05-27 03:43:00,
2013-05-26 20:48:00,61.9,53.2,29.64,SE,135,0.9,1.3,73,0.00,,,0.00,WUHU216HW,2013-05-27 03:48:00,
2013-05-26 20:53:00,61.9,53.2,29.64,SSE,158,1.1,1.1,73,0.00,,,0.00,WUHU216HW,2013-05-27 03:53:00,
2013-05-26 20:58:00,61.7,53.0,29.64,SSE,158,0.4,1.1,73,0.00,,,0.00,WUHU216HW,2013-05-27 03:58:00,
2013-05-26 21:01:00,61.7,53.0,29.64,SSW,203,1.1,1.1,73,0.00,,,0.00,WUHU216HW,2013-05-27 04:01:00,
2013-05-26 21:06:00,61.7,53.4,29.64,SW,225,0.4,1.1,74,0.00,,,0.00,WUHU216HW,2013-05-27 04:06:00,
2013-05-26 21:11:00,61.6,53.6,29.64,SSW,203,0.0,1.1,75,0.00,,,0.00,WUHU216HW,2013-05-27 04:11:00,
2013-05-26 21:16:00,61.6,53.9,29.63,South,180,0.7,1.1,76,0.00,,,0.00,WUHU216HW,2013-05-27 04:16:00,
2013-05-26 21:21:00,61.6,53.9,29.63,SSE,158,0.4,0.7,76,0.00,,,0.00,WUHU216HW,2013-05-27 04:21:00,
2013-05-26 21:26:00,61.6,53.9,29.64,SSW,203,0.0,0.7,76,0.00,,,0.00,WUHU216HW,2013-05-27 04:26:00,
2013-05-26 21:31:00,61.4,53.7,29.64,WSW,248,1.3,1.3,76,0.00,,,0.00,WUHU216HW,2013-05-27 04:31:00,
2013-05-26 21:36:00,61.2,53.7,29.64,WSW,248,0.0,1.3,76,0.00,,,0.00,WUHU216HW,2013-05-27 04:36:00,
2013-05-26 21:41:00,61.0,53.8,29.64,WSW,248,1.1,1.3,77,0.00,,,0.00,WUHU216HW,2013-05-27 04:41:00,
2013-05-26 21:46:00,60.8,54.0,29.64,SW,225,0.0,1.1,78,0.00,,,0.00,WUHU216HW,2013-05-27 04:46:00,
2013-05-26 21:51:00,60.8,54.0,29.64,South,180,0.9,1.1,78,0.00,,,0.00,WUHU216HW,2013-05-27 04:51:00,
2013-05-26 21:56:00,60.7,54.2,29.64,South,180,0.2,0.9,79,0.00,,,0.00,WUHU216HW,2013-05-27 04:56:00,
2013-05-26 22:01:00,60.7,54.2,29.64,East,90,0.9,1.3,79,0.00,,,0.00,WUHU216HW,2013-05-27 05:01:00,
2013-05-26 22:06:00,60.5,54.0,29.64,ENE,68,1.8,1.8,79,0.00,,,0.00,WUHU216HW,2013-05-27 05:06:00,
2013-05-26 22:11:00,60.3,54.2,29.64,SE,135,1.1,1.8,80,0.00,,,0.00,WUHU216HW,2013-05-27 05:11:00,
2013-05-26 22:16:00,60.1,53.6,29.64,ENE,68,1.3,1.8,79,0.00,,,0.00,WUHU216HW,2013-05-27 05:16:00,
2013-05-26 22:21:00,59.9,53.5,29.64,East,90,1.1,1.8,79,0.00,,,0.00,WUHU216HW,2013-05-27 05:21:00,
2013-05-26 22:26:00,59.8,52.9,29.65,ENE,68,1.3,1.8,78,0.00,,,0.00,WUHU216HW,2013-05-27 05:26:00,
2013-05-26 22:31:00,59.9,53.1,29.65,NE,45,1.1,1.3,78,0.00,,,0.00,WUHU216HW,2013-05-27 05:31:00,
2013-05-26 22:36:00,59.9,53.1,29.65,ENE,68,0.4,1.3,78,0.00,,,0.00,WUHU216HW,2013-05-27 05:36:00,
2013-05-26 22:41:00,59.9,53.1,29.65,East,90,0.2,1.1,78,0.00,,,0.00,WUHU216HW,2013-05-27 05:41:00,
2013-05-26 22:46:00,59.9,52.7,29.65,ENE,68,0.9,1.1,77,0.00,,,0.00,WUHU216HW,2013-05-27 05:46:00,
2013-05-26 22:51:00,59.8,52.9,29.65,ENE,68,0.4,1.1,78,0.00,,,0.00,WUHU216HW,2013-05-27 05:51:00,
2013-05-26 22:56:00,59.8,52.9,29.65,ENE,68,1.1,1.1,78,0.00,,,0.00,WUHU216HW,2013-05-27 05:56:00,
2013-05-26 23:01:00,59.6,52.7,29.65,ENE,68,0.4,1.1,78,0.00,,,0.00,WUHU216HW,2013-05-27 06:01:00,
2013-05-26 23:06:00,59.6,52.7,29.64,ENE,68,1.1,1.1,78,0.00,,,0.00,WUHU216HW,2013-05-27 06:06:00,
2013-05-26 23:11:00,59.4,52.6,29.64,NNE,23,1.8,1.8,78,0.00,,,0.00,WUHU216HW,2013-05-27 06:11:00,
2013-05-26 23:16:00,59.2,52.4,29.64,NNE,23,0.0,1.8,78,0.00,,,0.00,WUHU216HW,2013-05-27 06:16:00,
2013-05-26 23:21:00,59.2,52.4,29.64,ENE,68,0.7,1.8,78,0.00,,,0.00,WUHU216HW,2013-05-27 06:21:00,
2013-05-26 23:26:00,59.0,52.2,29.64,NE,45,1.6,1.6,78,0.00,,,0.00,WUHU216HW,2013-05-27 06:26:00,
2013-05-26 23:31:00,59.0,52.6,29.64,NNE,23,1.6,1.6,79,0.00,,,0.00,WUHU216HW,2013-05-27 06:31:00,
2013-05-26 23:36:00,59.0,52.6,29.63,ENE,68,1.1,1.8,79,0.00,,,0.00,WUHU216HW,2013-05-27 06:36:00,
2013-05-26 23:41:00,58.9,52.4,29.63,NE,45,1.3,1.8,79,0.00,,,0.00,WUHU216HW,2013-05-27 06:41:00,
2013-05-26 23:46:00,59.0,52.6,29.64,East,90,2.0,2.0,79,0.00,,,0.00,WUHU216HW,2013-05-27 06:46:00,
2013-05-26 23:51:00,59.0,52.6,29.64,NE,45,1.1,2.0,79,0.00,,,0.00,WUHU216HW,2013-05-27 06:51:00,
2013-05-26 23:56:00,59.0,52.9,29.63,North,0,1.3,2.2,80,0.00,,,0.00,WUHU216HW,2013-05-27 06:56:00,